EDDH

Hamburg Airport

Hamburg, Germany
METAR EDDH 201950Z 31007KT 9999 FEW026 BKN300 17/12 Q1019 NOSIG
Observed Flight Rules
Aug-20 @ 19:50 UTC (39 minutes ago) Visual Flight Rules
Wind Visibility Clouds
310° at 7 knots 10,000+ meters
  • Few at 2,600' AGL
  • Broken at 30,000' AGL
Temperatures Readings
Current 17°C / 63°F
Dewpoint 12°C / 54°F
Humidity 73%
Altimeter 30.09" Hg
Pressure 1019 hPa
Elevation 16
METAR EDDH 201950Z 31007KT 9999 FEW026 BKN300 17/12 Q1019 NOSIG
Observed Flight Rules
Aug-20 @ 19:50 UTC
(39 minutes ago)
VFR
Wind Visibility
310° at 7 knots 10,000+ meters
Clouds
  • Few at 2,600' AGL
  • Broken at 30,000' AGL
Temperature Dewpoint
17°C / 63°F 12°C / 54°F
Humidity Altimeter Pressure
73% 30.09" Hg 1019 hPa